createdAt,value
2022-08-26T00:00:16.495Z,19.37
2022-08-26T00:01:16.989Z,19.39
2022-08-26T00:02:16.691Z,19.40
2022-08-26T00:03:16.758Z,19.47
2022-08-26T00:04:17.312Z,19.47
2022-08-26T00:05:16.832Z,19.46
2022-08-26T00:06:17.222Z,19.39
2022-08-26T00:07:16.338Z,19.37
2022-08-26T00:08:16.775Z,19.34
2022-08-26T00:09:16.772Z,19.33
2022-08-26T00:10:16.330Z,19.34
2022-08-26T00:11:25.836Z,19.34
2022-08-26T00:12:16.341Z,19.31
2022-08-26T00:13:16.804Z,19.33
2022-08-26T00:14:17.084Z,19.31
2022-08-26T00:15:16.537Z,19.23
2022-08-26T00:16:17.132Z,19.22
2022-08-26T00:17:16.479Z,19.20
2022-08-26T00:18:21.714Z,19.19
2022-08-26T00:19:17.111Z,19.13
2022-08-26T00:20:16.587Z,19.12
2022-08-26T00:21:17.017Z,19.09
2022-08-26T00:22:20.151Z,19.07
2022-08-26T00:23:17.067Z,19.06
2022-08-26T00:24:16.848Z,19.06
2022-08-26T00:25:16.780Z,19.06
2022-08-26T00:26:16.769Z,19.05
2022-08-26T00:27:17.148Z,19.02
2022-08-26T00:28:16.775Z,19.03
2022-08-26T00:29:16.890Z,18.99
2022-08-26T00:30:17.074Z,19.03
2022-08-26T00:31:17.012Z,19.02
2022-08-26T00:32:17.240Z,19.01
2022-08-26T00:33:17.247Z,18.98
2022-08-26T00:34:16.460Z,18.96
2022-08-26T00:35:17.067Z,18.94
2022-08-26T00:36:20.161Z,18.89
2022-08-26T00:37:16.987Z,18.89
2022-08-26T00:38:16.415Z,18.85
2022-08-26T00:39:16.825Z,18.82
2022-08-26T00:40:17.275Z,18.84
2022-08-26T00:41:16.995Z,18.81
2022-08-26T00:42:17.187Z,18.81
2022-08-26T00:43:17.173Z,18.81
2022-08-26T00:44:16.422Z,18.79
2022-08-26T00:45:16.883Z,18.77
2022-08-26T00:46:16.538Z,18.79
2022-08-26T00:47:17.274Z,18.81
2022-08-26T00:48:17.164Z,18.78
2022-08-26T00:49:16.747Z,18.77
2022-08-26T00:50:17.172Z,18.75
2022-08-26T00:51:16.845Z,18.77
2022-08-26T00:52:16.468Z,18.78
2022-08-26T00:53:16.667Z,18.72
2022-08-26T00:54:16.624Z,18.72
2022-08-26T00:55:20.223Z,18.72
2022-08-26T00:56:16.475Z,18.71
2022-08-26T00:57:16.936Z,18.70
2022-08-26T00:58:16.418Z,18.72
2022-08-26T00:59:17.175Z,18.71
2022-08-26T01:00:17.112Z,18.68
2022-08-26T01:01:16.727Z,18.67
2022-08-26T01:02:20.384Z,18.67
2022-08-26T01:03:17.158Z,18.68
2022-08-26T01:04:16.613Z,18.70
2022-08-26T01:05:16.431Z,18.70
2022-08-26T01:06:17.036Z,18.70
2022-08-26T01:07:16.482Z,18.61
2022-08-26T01:08:16.900Z,18.60
2022-08-26T01:09:16.321Z,18.57
2022-08-26T01:10:16.640Z,18.54
2022-08-26T01:11:17.087Z,18.54
2022-08-26T01:12:16.952Z,18.51
2022-08-26T01:13:16.677Z,18.49
2022-08-26T01:14:16.544Z,18.47
2022-08-26T01:15:16.556Z,18.54
2022-08-26T01:16:17.118Z,18.53
2022-08-26T01:17:16.882Z,18.53
2022-08-26T01:18:16.353Z,18.49
2022-08-26T01:19:16.803Z,18.46
2022-08-26T01:20:17.240Z,18.43
2022-08-26T01:21:16.663Z,18.39
2022-08-26T01:22:16.859Z,18.42
2022-08-26T01:23:16.291Z,18.40
2022-08-26T01:24:16.846Z,18.36
2022-08-26T01:25:17.277Z,18.30
2022-08-26T01:26:19.584Z,18.23
2022-08-26T01:27:16.516Z,18.25
2022-08-26T01:28:16.980Z,18.20
2022-08-26T01:29:17.084Z,18.13
2022-08-26T01:30:16.545Z,18.11
2022-08-26T01:31:17.040Z,18.04
2022-08-26T01:32:16.608Z,18.08
2022-08-26T01:33:16.611Z,18.08
2022-08-26T01:34:17.044Z,18.09
2022-08-26T01:35:16.460Z,18.08
2022-08-26T01:36:16.700Z,18.06
2022-08-26T01:37:17.147Z,18.02
2022-08-26T01:38:16.562Z,17.97
2022-08-26T01:39:17.003Z,17.94
2022-08-26T01:40:17.221Z,17.92
2022-08-26T01:41:19.853Z,17.88
2022-08-26T01:42:16.347Z,17.87
2022-08-26T01:43:17.464Z,17.82
2022-08-26T01:44:16.699Z,17.82
2022-08-26T01:45:17.142Z,17.85
2022-08-26T01:46:16.660Z,17.85
2022-08-26T01:47:17.221Z,17.84
2022-08-26T01:48:17.220Z,17.84
2022-08-26T01:49:16.630Z,17.81
2022-08-26T01:50:18.050Z,17.78
2022-08-26T01:51:16.827Z,17.80
2022-08-26T01:52:16.386Z,17.81
2022-08-26T01:53:16.810Z,17.81
2022-08-26T01:54:17.304Z,17.84
2022-08-26T01:55:27.668Z,17.76
2022-08-26T01:56:16.717Z,17.74
2022-08-26T01:57:17.165Z,17.74
2022-08-26T01:58:16.753Z,17.74
2022-08-26T01:59:17.223Z,17.73
2022-08-26T02:00:16.813Z,17.71
2022-08-26T02:01:17.301Z,17.71
2022-08-26T02:02:16.744Z,17.73
2022-08-26T02:03:17.358Z,17.73
2022-08-26T02:04:16.957Z,17.73
2022-08-26T02:05:16.819Z,17.73
2022-08-26T02:06:17.256Z,17.70
2022-08-26T02:07:16.619Z,17.69
2022-08-26T02:08:16.776Z,17.74
2022-08-26T02:09:16.857Z,17.76
2022-08-26T02:10:16.293Z,17.74
2022-08-26T02:11:18.295Z,17.71
2022-08-26T02:12:16.468Z,17.76
2022-08-26T02:13:17.063Z,17.74
2022-08-26T02:14:16.521Z,17.69
2022-08-26T02:15:17.269Z,17.69
2022-08-26T02:16:16.595Z,17.67
2022-08-26T02:17:17.162Z,17.66
2022-08-26T02:18:16.628Z,17.63
2022-08-26T02:19:17.193Z,17.61
2022-08-26T02:20:16.854Z,17.66
2022-08-26T02:21:17.291Z,17.67
2022-08-26T02:22:16.363Z,17.64
2022-08-26T02:23:16.798Z,17.63
2022-08-26T02:24:17.155Z,17.67
2022-08-26T02:25:16.338Z,17.66
2022-08-26T02:26:17.831Z,17.69
2022-08-26T02:27:16.855Z,17.66
2022-08-26T02:28:16.526Z,17.67
2022-08-26T02:29:17.264Z,17.63
2022-08-26T02:30:17.069Z,17.63
2022-08-26T02:31:17.065Z,17.61
2022-08-26T02:32:18.574Z,17.63
2022-08-26T02:33:17.104Z,17.63
2022-08-26T02:34:16.535Z,17.69
2022-08-26T02:35:18.253Z,17.64
2022-08-26T02:36:16.792Z,17.64
2022-08-26T02:37:17.663Z,17.67
2022-08-26T02:38:16.472Z,17.67
2022-08-26T02:39:19.616Z,17.71
2022-08-26T02:40:16.996Z,17.71
2022-08-26T02:41:16.573Z,17.76
2022-08-26T02:42:17.027Z,17.73
2022-08-26T02:43:16.489Z,17.70
2022-08-26T02:44:16.964Z,17.71
2022-08-26T02:45:16.734Z,17.73
2022-08-26T02:46:21.403Z,17.71
2022-08-26T02:47:16.476Z,17.71
2022-08-26T02:48:17.071Z,17.70
2022-08-26T02:49:16.307Z,17.70
2022-08-26T02:50:16.668Z,17.67
2022-08-26T02:51:16.971Z,17.71
2022-08-26T02:52:16.787Z,17.74
2022-08-26T02:53:17.624Z,17.73
2022-08-26T02:54:16.989Z,17.73
2022-08-26T02:55:16.466Z,17.71
2022-08-26T02:56:16.929Z,17.67
2022-08-26T02:57:16.458Z,17.67
2022-08-26T02:58:16.601Z,17.67
2022-08-26T02:59:17.040Z,17.66
2022-08-26T03:00:16.489Z,17.64
2022-08-26T03:01:16.516Z,17.64
2022-08-26T03:02:16.572Z,17.63
2022-08-26T03:03:17.135Z,17.63
2022-08-26T03:04:17.023Z,17.63
2022-08-26T03:05:16.470Z,17.60
2022-08-26T03:06:16.402Z,17.61
2022-08-26T03:07:16.835Z,17.63
2022-08-26T03:08:17.198Z,17.66
2022-08-26T03:09:18.587Z,17.64
2022-08-26T03:10:16.359Z,17.63
2022-08-26T03:11:16.813Z,17.64
2022-08-26T03:12:16.360Z,17.63
2022-08-26T03:13:16.813Z,17.63
2022-08-26T03:14:16.758Z,17.63
2022-08-26T03:15:17.728Z,17.63
2022-08-26T03:16:16.932Z,17.61
2022-08-26T03:17:16.425Z,17.63
2022-08-26T03:18:16.844Z,17.60
2022-08-26T03:19:17.595Z,17.63
2022-08-26T03:20:17.297Z,17.64
2022-08-26T03:21:17.009Z,17.64
2022-08-26T03:22:17.080Z,17.60
2022-08-26T03:23:16.569Z,17.61
2022-08-26T03:24:16.994Z,17.60
2022-08-26T03:25:16.458Z,17.60
2022-08-26T03:26:16.940Z,17.66
2022-08-26T03:27:16.400Z,17.71
2022-08-26T03:28:18.120Z,17.67
2022-08-26T03:29:17.214Z,17.66
2022-08-26T03:30:16.777Z,17.64
2022-08-26T03:31:17.247Z,17.64
2022-08-26T03:32:16.948Z,17.61
2022-08-26T03:33:16.412Z,17.58
2022-08-26T03:34:17.241Z,17.56
2022-08-26T03:35:16.807Z,17.60
2022-08-26T03:36:17.243Z,17.61
2022-08-26T03:37:16.688Z,17.61
2022-08-26T03:38:16.687Z,17.56
2022-08-26T03:39:17.172Z,17.56
2022-08-26T03:40:16.670Z,17.50
2022-08-26T03:41:16.988Z,17.52
2022-08-26T03:42:16.951Z,17.50
2022-08-26T03:43:16.698Z,17.46
2022-08-26T03:44:17.151Z,17.47
2022-08-26T03:45:16.923Z,17.46
2022-08-26T03:46:16.409Z,17.47
2022-08-26T03:47:16.983Z,17.47
2022-08-26T03:48:16.399Z,17.49
2022-08-26T03:49:16.851Z,17.43
2022-08-26T03:50:16.721Z,17.36
2022-08-26T03:51:18.163Z,17.32
2022-08-26T03:52:16.887Z,17.35
2022-08-26T03:53:16.367Z,17.33
2022-08-26T03:54:17.028Z,17.26
2022-08-26T03:55:16.463Z,17.26
2022-08-26T03:56:17.156Z,17.25
2022-08-26T03:57:16.872Z,17.23
2022-08-26T03:58:16.651Z,17.23
2022-08-26T03:59:17.090Z,17.19
2022-08-26T04:00:18.223Z,17.18
2022-08-26T04:01:16.640Z,17.19
2022-08-26T04:02:16.660Z,17.14
2022-08-26T04:03:18.674Z,17.09
2022-08-26T04:04:16.657Z,17.05
2022-08-26T04:05:17.095Z,16.98
2022-08-26T04:06:16.604Z,16.98
2022-08-26T04:07:17.127Z,16.92
2022-08-26T04:08:16.833Z,16.94
2022-08-26T04:09:16.329Z,16.91
2022-08-26T04:10:16.801Z,16.91
2022-08-26T04:11:16.818Z,16.92
2022-08-26T04:12:16.755Z,16.90
2022-08-26T04:13:17.016Z,16.84
2022-08-26T04:14:17.547Z,16.80
2022-08-26T04:15:16.659Z,16.81
2022-08-26T04:16:17.308Z,16.83
2022-08-26T04:17:16.854Z,16.83
2022-08-26T04:18:16.615Z,16.84
2022-08-26T04:19:16.385Z,16.87
2022-08-26T04:20:16.811Z,16.87
2022-08-26T04:21:17.282Z,16.88
2022-08-26T04:22:16.681Z,16.90
2022-08-26T04:23:16.517Z,16.88
2022-08-26T04:24:17.610Z,16.86
2022-08-26T04:25:17.187Z,16.87
2022-08-26T04:26:16.620Z,16.86
2022-08-26T04:27:17.099Z,16.86
2022-08-26T04:28:16.551Z,16.84
2022-08-26T04:29:17.034Z,16.84
2022-08-26T04:30:16.616Z,16.84
2022-08-26T04:31:16.700Z,16.86
2022-08-26T04:32:16.467Z,16.83
2022-08-26T04:33:16.944Z,16.81
2022-08-26T04:34:16.452Z,16.81
2022-08-26T04:35:17.011Z,16.84
2022-08-26T04:36:16.663Z,16.84
2022-08-26T04:37:17.140Z,16.86
2022-08-26T04:38:16.916Z,16.90
2022-08-26T04:39:16.380Z,16.90
2022-08-26T04:40:16.884Z,16.87
2022-08-26T04:41:17.054Z,16.90
2022-08-26T04:42:19.945Z,16.88
2022-08-26T04:43:16.824Z,16.90
2022-08-26T04:44:17.256Z,16.88
2022-08-26T04:45:16.803Z,16.92
2022-08-26T04:46:16.956Z,16.91
2022-08-26T04:47:16.355Z,16.92
2022-08-26T04:48:16.987Z,16.97
2022-08-26T04:49:16.991Z,16.97
2022-08-26T04:50:16.778Z,16.97
2022-08-26T04:51:16.515Z,16.99
2022-08-26T04:52:17.127Z,17.01
2022-08-26T04:53:16.596Z,17.01
2022-08-26T04:54:16.714Z,17.01
2022-08-26T04:55:17.169Z,17.04
2022-08-26T04:56:17.191Z,17.09
2022-08-26T04:57:16.650Z,17.11
2022-08-26T04:58:17.113Z,17.14
2022-08-26T04:59:18.266Z,17.15
2022-08-26T05:00:16.791Z,17.23
2022-08-26T05:01:17.324Z,17.26
2022-08-26T05:02:16.909Z,17.27
2022-08-26T05:03:16.338Z,17.30
2022-08-26T05:04:18.746Z,17.36
2022-08-26T05:05:16.592Z,17.37
2022-08-26T05:06:17.134Z,17.39
2022-08-26T05:07:17.666Z,17.44
2022-08-26T05:08:16.297Z,17.47
2022-08-26T05:09:17.202Z,17.53
2022-08-26T05:10:16.713Z,17.53
2022-08-26T05:11:16.997Z,17.58
2022-08-26T05:12:16.904Z,17.61
2022-08-26T05:13:16.381Z,17.66
2022-08-26T05:14:16.951Z,17.69
2022-08-26T05:15:16.375Z,17.71
2022-08-26T05:16:16.929Z,17.78
2022-08-26T05:17:16.951Z,17.84
2022-08-26T05:18:16.372Z,17.88
2022-08-26T05:19:17.275Z,17.92
2022-08-26T05:20:17.001Z,17.97
2022-08-26T05:21:17.112Z,17.97
2022-08-26T05:22:16.487Z,17.97
2022-08-26T05:23:16.811Z,17.99
2022-08-26T05:24:17.259Z,18.02
2022-08-26T05:25:16.395Z,18.06
2022-08-26T05:26:17.140Z,18.11
2022-08-26T05:27:16.717Z,18.16
2022-08-26T05:28:16.447Z,18.22
2022-08-26T05:29:17.088Z,18.23
2022-08-26T05:30:16.508Z,18.32
2022-08-26T05:31:17.059Z,18.34
2022-08-26T05:32:16.508Z,18.42
2022-08-26T05:33:16.950Z,18.44
2022-08-26T05:34:16.436Z,18.54
2022-08-26T05:35:16.872Z,18.58
2022-08-26T05:36:16.579Z,18.64
2022-08-26T05:37:17.058Z,18.63
2022-08-26T05:38:17.229Z,18.72
2022-08-26T05:39:16.688Z,18.82
2022-08-26T05:40:17.183Z,18.92
2022-08-26T05:41:17.028Z,18.94
2022-08-26T05:42:16.357Z,19.02
2022-08-26T05:43:16.895Z,19.12
2022-08-26T05:44:16.515Z,19.12
2022-08-26T05:45:16.947Z,19.22
2022-08-26T05:46:16.761Z,19.27
2022-08-26T05:47:16.835Z,19.31
2022-08-26T05:48:16.755Z,19.34
2022-08-26T05:49:16.575Z,19.41
2022-08-26T05:50:17.299Z,19.51
2022-08-26T05:51:17.325Z,19.56
2022-08-26T05:52:16.536Z,19.60
2022-08-26T05:53:17.564Z,19.61
2022-08-26T05:54:21.417Z,19.64
2022-08-26T05:55:16.914Z,19.68
2022-08-26T05:56:16.904Z,19.72
2022-08-26T05:57:16.877Z,19.75
2022-08-26T05:58:17.414Z,19.89
2022-08-26T05:59:16.607Z,20.03
2022-08-26T06:00:17.070Z,20.06
2022-08-26T06:01:16.532Z,20.12
2022-08-26T06:02:16.320Z,20.12
2022-08-26T06:03:17.384Z,20.19
2022-08-26T06:04:16.979Z,20.21
2022-08-26T06:05:16.654Z,20.13
2022-08-26T06:06:17.098Z,19.99
2022-08-26T06:07:16.667Z,20.08
2022-08-26T06:08:17.454Z,20.20
2022-08-26T06:09:17.424Z,20.21
2022-08-26T06:10:30.837Z,20.17
2022-08-26T06:11:18.490Z,20.21
2022-08-26T06:12:16.688Z,20.15
2022-08-26T06:13:17.043Z,20.19
2022-08-26T06:14:16.471Z,20.41
2022-08-26T06:15:16.908Z,20.65
2022-08-26T06:16:16.387Z,20.79
2022-08-26T06:17:16.985Z,20.96
2022-08-26T06:18:17.219Z,20.79
2022-08-26T06:19:17.164Z,20.85
2022-08-26T06:20:16.623Z,21.06
2022-08-26T06:21:16.811Z,20.96
2022-08-26T06:22:19.493Z,21.03
2022-08-26T06:23:17.246Z,21.26
2022-08-26T06:24:16.694Z,21.13
2022-08-26T06:25:16.405Z,20.96
2022-08-26T06:26:16.950Z,20.89
2022-08-26T06:27:16.362Z,20.82
2022-08-26T06:28:16.789Z,20.72
2022-08-26T06:29:24.541Z,20.82
2022-08-26T06:30:17.272Z,21.20
2022-08-26T06:31:17.122Z,21.27
2022-08-26T06:32:17.010Z,21.38
2022-08-26T06:33:16.590Z,21.45
2022-08-26T06:34:16.883Z,21.73
2022-08-26T06:35:17.005Z,21.85
2022-08-26T06:36:16.470Z,21.82
2022-08-26T06:37:17.103Z,22.02
2022-08-26T06:38:16.304Z,22.24
2022-08-26T06:39:16.777Z,22.61
2022-08-26T06:40:17.249Z,22.95
2022-08-26T06:41:16.795Z,23.14
2022-08-26T06:42:17.060Z,23.26
2022-08-26T06:43:16.569Z,23.57
2022-08-26T06:44:16.390Z,23.78
2022-08-26T06:45:16.887Z,23.68
2022-08-26T06:46:16.439Z,24.02
2022-08-26T06:47:17.027Z,24.40
2022-08-26T06:48:16.476Z,24.46
2022-08-26T06:49:17.357Z,24.38
2022-08-26T06:50:16.907Z,24.21
2022-08-26T06:51:16.596Z,24.20
2022-08-26T06:52:20.015Z,24.02
2022-08-26T06:53:17.023Z,24.00
2022-08-26T06:54:16.650Z,24.00
2022-08-26T06:55:17.084Z,24.03
2022-08-26T06:56:16.670Z,24.00
2022-08-26T06:57:17.086Z,23.89
2022-08-26T06:58:16.549Z,23.92
2022-08-26T06:59:16.963Z,23.99
2022-08-26T07:00:16.348Z,24.09
2022-08-26T07:01:16.623Z,24.37
2022-08-26T07:02:16.509Z,24.61
2022-08-26T07:03:16.520Z,24.98
2022-08-26T07:04:20.085Z,25.14
2022-08-26T07:05:16.370Z,25.54
2022-08-26T07:06:16.840Z,25.79
2022-08-26T07:07:16.324Z,25.85
2022-08-26T07:08:16.820Z,26.00
2022-08-26T07:09:16.527Z,25.66
2022-08-26T07:10:16.965Z,25.28
2022-08-26T07:11:16.399Z,25.21
2022-08-26T07:12:17.184Z,25.90
2022-08-26T07:13:16.618Z,26.19
2022-08-26T07:14:17.043Z,26.41
2022-08-26T07:15:16.315Z,26.90
2022-08-26T07:16:16.826Z,27.02
2022-08-26T07:17:16.501Z,27.40
2022-08-26T07:18:16.986Z,27.59
2022-08-26T07:19:16.447Z,27.62
2022-08-26T07:20:16.370Z,27.61
2022-08-26T07:21:16.626Z,27.57
2022-08-26T07:22:16.308Z,27.55
2022-08-26T07:23:16.819Z,27.75
2022-08-26T07:24:16.786Z,27.77
2022-08-26T07:25:16.762Z,27.87
2022-08-26T07:26:16.593Z,28.13
2022-08-26T07:27:16.392Z,28.28
2022-08-26T07:28:16.564Z,28.30
2022-08-26T07:29:17.004Z,28.34
2022-08-26T07:30:16.574Z,28.72
2022-08-26T07:31:17.140Z,28.73
2022-08-26T07:32:16.935Z,27.82
2022-08-26T07:33:16.453Z,28.39
2022-08-26T07:34:16.934Z,29.03
2022-08-26T07:35:16.415Z,29.18
2022-08-26T07:36:17.177Z,29.16
2022-08-26T07:37:16.638Z,29.01
2022-08-26T07:38:17.111Z,28.97
2022-08-26T07:39:16.529Z,28.69
2022-08-26T07:40:17.098Z,29.09
2022-08-26T07:41:16.554Z,28.76
2022-08-26T07:42:17.149Z,28.45
2022-08-26T07:43:16.544Z,28.64
2022-08-26T07:44:16.409Z,29.13
2022-08-26T07:45:17.090Z,29.83
2022-08-26T07:46:16.608Z,30.31
2022-08-26T07:47:25.341Z,30.38
2022-08-26T07:48:16.759Z,29.31
2022-08-26T07:49:17.043Z,28.87
2022-08-26T07:50:16.615Z,29.38
2022-08-26T07:51:17.065Z,29.93
2022-08-26T07:52:16.667Z,29.75
2022-08-26T07:53:17.983Z,29.75
2022-08-26T07:54:16.703Z,29.56
2022-08-26T07:55:17.172Z,29.75
2022-08-26T07:56:16.631Z,29.86
2022-08-26T07:57:17.067Z,29.58
2022-08-26T07:58:16.562Z,29.86
2022-08-26T07:59:17.163Z,30.18
2022-08-26T08:00:16.607Z,30.69
2022-08-26T08:01:16.550Z,30.93
2022-08-26T08:02:16.488Z,30.86
2022-08-26T08:03:16.919Z,30.98
2022-08-26T08:04:16.497Z,30.80
2022-08-26T08:05:16.972Z,30.78
2022-08-26T08:06:16.807Z,30.08
2022-08-26T08:07:17.250Z,29.07
2022-08-26T08:08:17.378Z,28.89
2022-08-26T08:09:16.566Z,28.99
2022-08-26T08:10:16.396Z,30.23
2022-08-26T08:11:16.814Z,31.14
2022-08-26T08:12:16.448Z,31.58
2022-08-26T08:13:16.831Z,31.93
2022-08-26T08:14:16.647Z,31.71
2022-08-26T08:15:16.751Z,31.93
2022-08-26T08:16:17.363Z,31.86
2022-08-26T08:17:17.028Z,32.50
2022-08-26T08:18:16.537Z,32.71
2022-08-26T08:19:16.340Z,33.13
2022-08-26T08:20:16.802Z,33.20
2022-08-26T08:21:21.495Z,33.18
2022-08-26T08:22:17.704Z,33.21
2022-08-26T08:23:16.624Z,32.52
2022-08-26T08:24:17.056Z,32.72
2022-08-26T08:25:16.480Z,33.42
2022-08-26T08:26:16.985Z,33.38
2022-08-26T08:27:18.102Z,32.11
2022-08-26T08:28:17.074Z,30.39
2022-08-26T08:29:17.066Z,30.51
2022-08-26T08:30:20.952Z,30.13
2022-08-26T08:31:19.083Z,31.13
2022-08-26T08:32:17.065Z,31.87
2022-08-26T08:33:16.551Z,32.30
2022-08-26T08:34:17.070Z,32.87
2022-08-26T08:35:16.714Z,33.40
2022-08-26T08:36:18.523Z,33.80
2022-08-26T08:37:16.943Z,34.61
2022-08-26T08:38:16.368Z,34.64
2022-08-26T08:39:17.167Z,34.19
2022-08-26T08:40:16.745Z,34.54
2022-08-26T08:41:16.322Z,34.61
2022-08-26T08:42:17.003Z,34.16
2022-08-26T08:43:16.451Z,34.57
2022-08-26T08:44:16.939Z,33.86
2022-08-26T08:45:16.782Z,33.72
2022-08-26T08:46:16.816Z,34.40
2022-08-26T08:47:16.624Z,34.53
2022-08-26T08:48:17.079Z,34.47
2022-08-26T08:49:16.574Z,34.54
2022-08-26T08:50:16.544Z,34.04
2022-08-26T08:51:16.854Z,33.61
2022-08-26T08:52:16.407Z,33.16
2022-08-26T08:53:17.071Z,32.87
2022-08-26T08:54:16.486Z,33.02
2022-08-26T08:55:18.155Z,32.78
2022-08-26T08:56:17.160Z,32.82
2022-08-26T08:57:16.602Z,33.16
2022-08-26T08:58:17.104Z,33.85
2022-08-26T08:59:17.195Z,34.48
2022-08-26T09:00:17.246Z,34.43
2022-08-26T09:01:17.086Z,33.83
2022-08-26T09:02:16.619Z,34.26
2022-08-26T09:03:17.257Z,34.47
2022-08-26T09:04:17.165Z,33.48
2022-08-26T09:05:16.839Z,33.47
2022-08-26T09:06:17.347Z,34.12
2022-08-26T09:07:16.855Z,34.72
2022-08-26T09:08:16.515Z,35.12
2022-08-26T09:09:16.387Z,34.71
2022-08-26T09:10:17.136Z,34.38
2022-08-26T09:11:16.594Z,35.20
2022-08-26T09:12:16.447Z,35.29
2022-08-26T09:13:16.937Z,35.05
2022-08-26T09:14:16.765Z,34.55
2022-08-26T09:15:17.006Z,34.33
2022-08-26T09:16:17.447Z,34.48
2022-08-26T09:17:16.747Z,34.23
2022-08-26T09:18:17.252Z,33.99
2022-08-26T09:19:18.789Z,34.21
2022-08-26T09:20:17.060Z,34.53
2022-08-26T09:21:16.651Z,34.64
2022-08-26T09:22:17.038Z,34.62
2022-08-26T09:23:16.535Z,34.83
2022-08-26T09:24:16.634Z,35.13
2022-08-26T09:25:16.650Z,35.55
2022-08-26T09:26:17.132Z,35.88
2022-08-26T09:27:16.942Z,36.26
2022-08-26T09:28:16.390Z,35.95
2022-08-26T09:29:16.592Z,36.54
2022-08-26T09:30:16.495Z,36.15
2022-08-26T09:31:17.173Z,35.57
2022-08-26T09:32:16.373Z,35.23
2022-08-26T09:33:16.887Z,35.53
2022-08-26T09:34:17.722Z,36.13
2022-08-26T09:35:16.412Z,37.05
2022-08-26T09:36:16.867Z,37.52
2022-08-26T09:37:16.568Z,37.70
2022-08-26T09:38:17.199Z,35.78
2022-08-26T09:39:16.349Z,33.28
2022-08-26T09:40:17.038Z,33.96
2022-08-26T09:41:16.829Z,34.44
2022-08-26T09:42:17.175Z,33.91
2022-08-26T09:43:21.973Z,34.33
2022-08-26T09:44:16.543Z,34.68
2022-08-26T09:45:17.142Z,34.92
2022-08-26T09:46:16.882Z,35.27
2022-08-26T09:47:16.562Z,35.55
2022-08-26T09:48:17.027Z,35.40
2022-08-26T09:49:17.230Z,35.33
2022-08-26T09:50:16.984Z,35.67
2022-08-26T09:51:16.433Z,34.55
2022-08-26T09:52:16.877Z,34.92
2022-08-26T09:53:16.297Z,36.30
2022-08-26T09:54:16.715Z,35.30
2022-08-26T09:55:17.216Z,35.96
2022-08-26T09:56:16.647Z,35.81
2022-08-26T09:57:17.082Z,36.13
2022-08-26T09:58:16.515Z,36.15
2022-08-26T09:59:18.946Z,36.54
2022-08-26T10:00:16.446Z,37.03
2022-08-26T10:01:17.157Z,37.05
2022-08-26T10:02:16.535Z,37.19
2022-08-26T10:03:17.404Z,37.78
2022-08-26T10:04:16.961Z,37.88
2022-08-26T10:05:17.192Z,38.04
2022-08-26T10:06:16.619Z,38.36
2022-08-26T10:07:17.212Z,38.45
2022-08-26T10:08:16.306Z,36.74
2022-08-26T10:09:16.741Z,35.02
2022-08-26T10:10:16.995Z,35.51
2022-08-26T10:11:16.451Z,35.87
2022-08-26T10:12:17.122Z,35.10
2022-08-26T10:13:17.281Z,35.72
2022-08-26T10:14:16.804Z,36.27
2022-08-26T10:15:16.661Z,36.24
2022-08-26T10:16:16.383Z,36.50
2022-08-26T10:17:16.663Z,36.60
2022-08-26T10:18:17.123Z,36.75
2022-08-26T10:19:16.964Z,36.95
2022-08-26T10:20:23.019Z,37.18
2022-08-26T10:21:17.932Z,37.32
2022-08-26T10:22:16.643Z,36.89
2022-08-26T10:23:17.070Z,35.68
2022-08-26T10:24:16.773Z,35.06
2022-08-26T10:25:16.471Z,34.78
2022-08-26T10:26:16.892Z,33.34
2022-08-26T10:27:16.656Z,33.91
2022-08-26T10:28:17.096Z,33.61
2022-08-26T10:29:16.573Z,33.55
2022-08-26T10:30:16.838Z,33.27
2022-08-26T10:31:16.664Z,33.40
2022-08-26T10:32:16.881Z,33.52
2022-08-26T10:33:17.893Z,33.51
2022-08-26T10:34:16.646Z,32.86
2022-08-26T10:35:17.093Z,31.41
2022-08-26T10:36:16.517Z,31.48
2022-08-26T10:37:16.838Z,31.73
2022-08-26T10:38:17.108Z,30.97
2022-08-26T10:39:16.908Z,31.55
2022-08-26T10:40:16.452Z,31.53
2022-08-26T10:41:18.062Z,31.75
2022-08-26T10:42:16.758Z,32.48
2022-08-26T10:43:16.792Z,32.26
2022-08-26T10:44:16.365Z,32.80
2022-08-26T10:45:17.040Z,32.95
2022-08-26T10:46:16.531Z,33.24
2022-08-26T10:47:16.590Z,33.58
2022-08-26T10:48:16.431Z,33.62
2022-08-26T10:49:16.552Z,34.20
2022-08-26T10:50:17.945Z,34.66
2022-08-26T10:51:16.297Z,35.06
2022-08-26T10:52:16.994Z,35.13
2022-08-26T10:53:16.403Z,35.00
2022-08-26T10:54:16.835Z,34.37
2022-08-26T10:55:16.975Z,34.36
2022-08-26T10:56:18.535Z,34.77
2022-08-26T10:57:16.798Z,35.13
2022-08-26T10:58:20.577Z,34.86
2022-08-26T10:59:16.928Z,32.27
2022-08-26T11:00:16.395Z,32.39
2022-08-26T11:01:17.140Z,32.66
2022-08-26T11:02:19.488Z,34.23
2022-08-26T11:03:22.129Z,34.69
2022-08-26T11:04:17.231Z,35.20
2022-08-26T11:05:16.732Z,35.57
2022-08-26T11:06:16.620Z,35.89
2022-08-26T11:07:16.635Z,36.10
2022-08-26T11:08:17.053Z,36.47
2022-08-26T11:09:16.833Z,36.12
2022-08-26T11:10:17.255Z,36.09
2022-08-26T11:11:16.720Z,35.87
2022-08-26T11:12:17.107Z,36.06
2022-08-26T11:13:16.874Z,36.63
2022-08-26T11:14:16.493Z,37.30
2022-08-26T11:15:16.721Z,37.56
2022-08-26T11:16:16.897Z,36.44
2022-08-26T11:17:16.432Z,35.03
2022-08-26T11:18:16.871Z,34.65
2022-08-26T11:19:16.822Z,34.85
2022-08-26T11:20:17.255Z,35.81
2022-08-26T11:21:17.253Z,36.10
2022-08-26T11:22:17.233Z,35.61
2022-08-26T11:23:16.980Z,35.45
2022-08-26T11:24:16.404Z,35.26
2022-08-26T11:25:17.642Z,35.30
2022-08-26T11:26:30.073Z,34.93
2022-08-26T11:27:17.125Z,33.40
2022-08-26T11:28:16.477Z,32.69
2022-08-26T11:29:16.623Z,32.71
2022-08-26T11:30:18.257Z,34.16
2022-08-26T11:31:16.550Z,35.03
2022-08-26T11:32:16.760Z,35.51
2022-08-26T11:33:16.998Z,35.44
2022-08-26T11:34:16.797Z,34.62
2022-08-26T11:35:17.218Z,34.98
2022-08-26T11:36:17.113Z,35.34
2022-08-26T11:37:16.537Z,34.83
2022-08-26T11:38:17.042Z,34.62
2022-08-26T11:39:16.719Z,34.64
2022-08-26T11:40:17.209Z,33.37
2022-08-26T11:41:16.896Z,34.10
2022-08-26T11:42:16.552Z,35.20
2022-08-26T11:43:16.806Z,35.67
2022-08-26T11:44:16.393Z,36.02
2022-08-26T11:45:16.885Z,36.33
2022-08-26T11:46:16.386Z,34.28
2022-08-26T11:47:16.989Z,33.88
2022-08-26T11:48:16.407Z,34.55
2022-08-26T11:49:16.834Z,35.19
2022-08-26T11:50:16.466Z,35.21
2022-08-26T11:51:17.064Z,35.12
2022-08-26T11:52:16.345Z,34.96
2022-08-26T11:53:17.032Z,34.92
2022-08-26T11:54:16.615Z,34.24
2022-08-26T11:55:16.626Z,34.23
2022-08-26T11:56:16.582Z,34.19
2022-08-26T11:57:16.747Z,34.10
2022-08-26T11:58:16.944Z,33.76
2022-08-26T11:59:16.410Z,33.78
2022-08-26T12:00:20.449Z,33.20
2022-08-26T12:01:17.052Z,33.37
2022-08-26T12:02:16.556Z,33.35
2022-08-26T12:03:16.576Z,33.47
2022-08-26T12:04:17.126Z,33.18
2022-08-26T12:05:16.819Z,33.14
2022-08-26T12:06:17.290Z,33.02
2022-08-26T12:07:16.800Z,32.02
2022-08-26T12:08:16.805Z,32.20
2022-08-26T12:09:17.250Z,32.41
2022-08-26T12:10:16.401Z,31.99
2022-08-26T12:11:16.884Z,32.04
2022-08-26T12:12:16.560Z,31.99
2022-08-26T12:13:17.027Z,32.04
2022-08-26T12:14:16.476Z,32.13
2022-08-26T12:15:16.953Z,31.89
2022-08-26T12:16:16.595Z,31.86
2022-08-26T12:17:17.140Z,31.83
2022-08-26T12:18:16.747Z,31.83
2022-08-26T12:19:17.164Z,31.73
2022-08-26T12:20:16.320Z,31.71
2022-08-26T12:21:16.754Z,31.75
2022-08-26T12:22:16.663Z,31.82
2022-08-26T12:23:16.309Z,31.48
2022-08-26T12:24:17.178Z,31.45
2022-08-26T12:25:16.392Z,31.42
2022-08-26T12:26:16.928Z,31.53
2022-08-26T12:27:16.428Z,31.46
2022-08-26T12:28:17.476Z,31.58
2022-08-26T12:29:19.972Z,31.41
2022-08-26T12:30:16.482Z,31.45
2022-08-26T12:31:17.520Z,31.61
2022-08-26T12:32:16.613Z,31.13
2022-08-26T12:33:22.584Z,31.09
2022-08-26T12:34:17.501Z,30.98
2022-08-26T12:35:16.964Z,31.10
2022-08-26T12:36:16.413Z,31.10
2022-08-26T12:37:16.883Z,31.18
2022-08-26T12:38:16.443Z,31.04
2022-08-26T12:39:16.902Z,31.16
2022-08-26T12:40:16.401Z,31.28
2022-08-26T12:41:17.024Z,31.23
2022-08-26T12:42:17.263Z,30.94
2022-08-26T12:43:16.743Z,30.56
2022-08-26T12:44:17.259Z,30.72
2022-08-26T12:45:16.755Z,30.75
2022-08-26T12:46:17.220Z,30.66
2022-08-26T12:47:16.667Z,30.45
2022-08-26T12:48:16.407Z,30.42
2022-08-26T12:49:16.835Z,30.44
2022-08-26T12:50:17.265Z,30.42
2022-08-26T12:51:16.688Z,30.35
2022-08-26T12:52:17.028Z,30.24